Terminal Aerodrome Forecast
Issued by NWS

Current Version | Previous Version | Text Only | Print | Product List | Glossary Off
Versions: 1 2 3 4 5 6 7 8 9 10 11 12 13 14 15 16 17 18 19 20 21

000
FTUS41 KRLX 011442 AAA
TAFCKB
TAF AMD
KCKB 011442Z 0115/0212 27003KT P6SM SCT045
     FM011600 30007KT P6SM FEW050
     FM020000 VRB03KT P6SM SCT060
     FM021100 00000KT 6SM BR SCT250=

USA.gov is the U.S. government's official web portal to all federal, state and local government web resources and services.